sensor_id;sensor_type;location;lat;lon;timestamp;temperature;humidity
17399;DHT22;8817;48.170;8.592;2022-09-24T00:01:07;18.30;42.30
17399;DHT22;8817;48.170;8.592;2022-09-24T00:03:34;18.30;42.40
17399;DHT22;8817;48.170;8.592;2022-09-24T00:06:00;18.30;42.30
17399;DHT22;8817;48.170;8.592;2022-09-24T00:08:28;18.30;42.40
17399;DHT22;8817;48.170;8.592;2022-09-24T00:10:55;18.30;42.40
17399;DHT22;8817;48.170;8.592;2022-09-24T00:13:23;18.30;42.50
17399;DHT22;8817;48.170;8.592;2022-09-24T00:15:50;18.30;42.50
17399;DHT22;8817;48.170;8.592;2022-09-24T00:18:18;18.30;42.50
17399;DHT22;8817;48.170;8.592;2022-09-24T00:20:46;18.30;42.60
17399;DHT22;8817;48.170;8.592;2022-09-24T00:23:13;18.30;42.60
17399;DHT22;8817;48.170;8.592;2022-09-24T00:25:40;18.30;42.70
17399;DHT22;8817;48.170;8.592;2022-09-24T00:28:26;18.30;42.70
17399;DHT22;8817;48.170;8.592;2022-09-24T00:30:53;18.30;42.70
17399;DHT22;8817;48.170;8.592;2022-09-24T00:33:22;18.30;42.70
17399;DHT22;8817;48.170;8.592;2022-09-24T00:35:49;18.30;42.70
17399;DHT22;8817;48.170;8.592;2022-09-24T00:38:16;18.30;42.80
17399;DHT22;8817;48.170;8.592;2022-09-24T00:40:44;18.30;42.80
17399;DHT22;8817;48.170;8.592;2022-09-24T00:43:22;18.30;42.90
17399;DHT22;8817;48.170;8.592;2022-09-24T00:45:52;18.20;42.90
17399;DHT22;8817;48.170;8.592;2022-09-24T00:48:20;18.30;43.00
17399;DHT22;8817;48.170;8.592;2022-09-24T00:50:47;18.30;43.00
17399;DHT22;8817;48.170;8.592;2022-09-24T00:53:16;18.30;43.00
17399;DHT22;8817;48.170;8.592;2022-09-24T00:55:46;18.30;43.00
17399;DHT22;8817;48.170;8.592;2022-09-24T00:58:15;18.30;43.10
17399;DHT22;8817;48.170;8.592;2022-09-24T01:00:42;18.30;43.10
17399;DHT22;8817;48.170;8.592;2022-09-24T01:03:15;18.30;43.10
17399;DHT22;8817;48.170;8.592;2022-09-24T01:05:43;18.30;43.20
17399;DHT22;8817;48.170;8.592;2022-09-24T01:08:12;18.30;43.10
17399;DHT22;8817;48.170;8.592;2022-09-24T01:10:48;18.30;43.20
17399;DHT22;8817;48.170;8.592;2022-09-24T01:13:30;18.30;43.20
17399;DHT22;8817;48.170;8.592;2022-09-24T01:16:02;18.30;43.30
17399;DHT22;8817;48.170;8.592;2022-09-24T01:18:39;18.30;43.30
17399;DHT22;8817;48.170;8.592;2022-09-24T01:21:30;18.30;43.30
17399;DHT22;8817;48.170;8.592;2022-09-24T01:24:12;18.30;43.30
17399;DHT22;8817;48.170;8.592;2022-09-24T01:26:52;18.30;43.40
17399;DHT22;8817;48.170;8.592;2022-09-24T01:29:35;18.30;43.40
17399;DHT22;8817;48.170;8.592;2022-09-24T01:32:09;18.30;43.40
17399;DHT22;8817;48.170;8.592;2022-09-24T01:34:41;18.30;43.40
17399;DHT22;8817;48.170;8.592;2022-09-24T01:37:11;18.30;43.50
17399;DHT22;8817;48.170;8.592;2022-09-24T01:39:41;18.30;43.50
17399;DHT22;8817;48.170;8.592;2022-09-24T01:42:10;18.30;43.60
17399;DHT22;8817;48.170;8.592;2022-09-24T01:44:39;18.30;43.70
17399;DHT22;8817;48.170;8.592;2022-09-24T01:47:09;18.30;43.70
17399;DHT22;8817;48.170;8.592;2022-09-24T01:49:38;18.30;43.70
17399;DHT22;8817;48.170;8.592;2022-09-24T01:52:08;18.30;43.80
17399;DHT22;8817;48.170;8.592;2022-09-24T01:54:39;18.30;43.90
17399;DHT22;8817;48.170;8.592;2022-09-24T01:57:09;18.30;43.90
17399;DHT22;8817;48.170;8.592;2022-09-24T01:59:42;18.30;44.00
17399;DHT22;8817;48.170;8.592;2022-09-24T02:02:16;18.30;44.10
17399;DHT22;8817;48.170;8.592;2022-09-24T02:04:50;18.30;44.20
17399;DHT22;8817;48.170;8.592;2022-09-24T02:07:25;18.30;44.10
17399;DHT22;8817;48.170;8.592;2022-09-24T02:09:53;18.40;44.20
17399;DHT22;8817;48.170;8.592;2022-09-24T02:12:22;18.30;44.10
17399;DHT22;8817;48.170;8.592;2022-09-24T02:14:59;18.30;44.20
17399;DHT22;8817;48.170;8.592;2022-09-24T02:17:30;18.30;44.30
17399;DHT22;8817;48.170;8.592;2022-09-24T02:20:00;18.40;44.30
17399;DHT22;8817;48.170;8.592;2022-09-24T02:22:28;18.30;44.30
17399;DHT22;8817;48.170;8.592;2022-09-24T02:24:57;18.40;44.40
17399;DHT22;8817;48.170;8.592;2022-09-24T02:27:27;18.30;44.40
17399;DHT22;8817;48.170;8.592;2022-09-24T02:29:55;18.40;44.40
17399;DHT22;8817;48.170;8.592;2022-09-24T02:32:25;18.30;44.40
17399;DHT22;8817;48.170;8.592;2022-09-24T02:34:57;18.30;44.50
17399;DHT22;8817;48.170;8.592;2022-09-24T02:37:25;18.30;44.50
17399;DHT22;8817;48.170;8.592;2022-09-24T02:39:52;18.40;44.60
17399;DHT22;8817;48.170;8.592;2022-09-24T02:42:20;18.30;44.60
17399;DHT22;8817;48.170;8.592;2022-09-24T02:44:47;18.40;45.20
17399;DHT22;8817;48.170;8.592;2022-09-24T02:47:16;18.30;44.60
17399;DHT22;8817;48.170;8.592;2022-09-24T02:49:43;18.30;44.70
17399;DHT22;8817;48.170;8.592;2022-09-24T02:52:10;18.40;44.70
17399;DHT22;8817;48.170;8.592;2022-09-24T02:54:38;18.40;44.80
17399;DHT22;8817;48.170;8.592;2022-09-24T02:57:05;18.30;44.10
17399;DHT22;8817;48.170;8.592;2022-09-24T02:59:32;18.40;44.90
17399;DHT22;8817;48.170;8.592;2022-09-24T03:01:59;18.40;44.90
17399;DHT22;8817;48.170;8.592;2022-09-24T03:04:27;18.40;44.90
17399;DHT22;8817;48.170;8.592;2022-09-24T03:06:55;18.40;45.00
17399;DHT22;8817;48.170;8.592;2022-09-24T03:09:22;18.40;44.90
17399;DHT22;8817;48.170;8.592;2022-09-24T03:11:49;18.50;60.90
17399;DHT22;8817;48.170;8.592;2022-09-24T03:14:16;18.50;44.10
17399;DHT22;8817;48.170;8.592;2022-09-24T03:16:43;18.40;44.80
17399;DHT22;8817;48.170;8.592;2022-09-24T03:19:10;18.30;45.00
17399;DHT22;8817;48.170;8.592;2022-09-24T03:21:38;18.30;45.00
17399;DHT22;8817;48.170;8.592;2022-09-24T03:24:05;18.30;45.10
17399;DHT22;8817;48.170;8.592;2022-09-24T03:26:32;18.20;45.10
17399;DHT22;8817;48.170;8.592;2022-09-24T03:28:59;18.20;45.10
17399;DHT22;8817;48.170;8.592;2022-09-24T03:31:26;18.20;45.10
17399;DHT22;8817;48.170;8.592;2022-09-24T03:33:52;18.10;45.10
17399;DHT22;8817;48.170;8.592;2022-09-24T03:36:20;18.10;45.20
17399;DHT22;8817;48.170;8.592;2022-09-24T03:38:51;18.10;45.30
17399;DHT22;8817;48.170;8.592;2022-09-24T03:41:19;18.10;45.40
17399;DHT22;8817;48.170;8.592;2022-09-24T03:43:46;18.00;45.30
17399;DHT22;8817;48.170;8.592;2022-09-24T03:46:14;18.00;45.40
17399;DHT22;8817;48.170;8.592;2022-09-24T03:48:42;17.90;45.40
17399;DHT22;8817;48.170;8.592;2022-09-24T03:51:12;17.90;45.50
17399;DHT22;8817;48.170;8.592;2022-09-24T03:53:40;17.90;45.60
17399;DHT22;8817;48.170;8.592;2022-09-24T03:56:08;17.90;45.60
17399;DHT22;8817;48.170;8.592;2022-09-24T03:58:36;17.90;45.60
17399;DHT22;8817;48.170;8.592;2022-09-24T04:01:04;17.90;45.70
17399;DHT22;8817;48.170;8.592;2022-09-24T04:03:31;17.80;45.70
17399;DHT22;8817;48.170;8.592;2022-09-24T04:05:58;17.90;45.80
17399;DHT22;8817;48.170;8.592;2022-09-24T04:08:25;17.90;45.90
17399;DHT22;8817;48.170;8.592;2022-09-24T04:10:52;17.90;46.00
17399;DHT22;8817;48.170;8.592;2022-09-24T04:13:21;17.90;46.00
17399;DHT22;8817;48.170;8.592;2022-09-24T04:15:48;17.90;46.10
17399;DHT22;8817;48.170;8.592;2022-09-24T04:18:16;17.90;46.10
17399;DHT22;8817;48.170;8.592;2022-09-24T04:20:43;18.00;46.20
17399;DHT22;8817;48.170;8.592;2022-09-24T04:23:11;18.00;46.10
17399;DHT22;8817;48.170;8.592;2022-09-24T04:25:38;18.00;46.20
17399;DHT22;8817;48.170;8.592;2022-09-24T04:28:07;18.00;46.20
17399;DHT22;8817;48.170;8.592;2022-09-24T04:30:36;18.00;46.20
17399;DHT22;8817;48.170;8.592;2022-09-24T04:33:03;18.00;46.20
17399;DHT22;8817;48.170;8.592;2022-09-24T04:35:31;18.00;46.20
17399;DHT22;8817;48.170;8.592;2022-09-24T04:38:01;18.00;46.20
17399;DHT22;8817;48.170;8.592;2022-09-24T04:40:28;18.00;46.20
17399;DHT22;8817;48.170;8.592;2022-09-24T04:42:55;18.00;46.30
17399;DHT22;8817;48.170;8.592;2022-09-24T04:45:22;18.00;46.30
17399;DHT22;8817;48.170;8.592;2022-09-24T04:47:53;18.00;46.30
17399;DHT22;8817;48.170;8.592;2022-09-24T04:50:23;18.00;46.40
17399;DHT22;8817;48.170;8.592;2022-09-24T04:52:50;18.10;46.40
17399;DHT22;8817;48.170;8.592;2022-09-24T04:55:17;18.00;46.30
17399;DHT22;8817;48.170;8.592;2022-09-24T04:57:45;18.00;46.40
17399;DHT22;8817;48.170;8.592;2022-09-24T05:00:15;18.00;46.40
17399;DHT22;8817;48.170;8.592;2022-09-24T05:02:42;18.00;46.50
17399;DHT22;8817;48.170;8.592;2022-09-24T05:05:11;18.00;46.50
17399;DHT22;8817;48.170;8.592;2022-09-24T05:07:38;18.00;46.50
17399;DHT22;8817;48.170;8.592;2022-09-24T05:10:06;18.00;46.50
17399;DHT22;8817;48.170;8.592;2022-09-24T05:12:33;18.00;46.60
17399;DHT22;8817;48.170;8.592;2022-09-24T05:15:01;18.00;46.60
17399;DHT22;8817;48.170;8.592;2022-09-24T05:17:28;18.00;46.70
17399;DHT22;8817;48.170;8.592;2022-09-24T05:19:55;18.00;46.70
17399;DHT22;8817;48.170;8.592;2022-09-24T05:22:25;18.00;46.70
17399;DHT22;8817;48.170;8.592;2022-09-24T05:24:53;18.00;46.80
17399;DHT22;8817;48.170;8.592;2022-09-24T05:27:20;18.00;46.80
17399;DHT22;8817;48.170;8.592;2022-09-24T05:29:47;18.00;46.80
17399;DHT22;8817;48.170;8.592;2022-09-24T05:32:18;18.00;46.80
17399;DHT22;8817;48.170;8.592;2022-09-24T05:34:45;18.00;46.90
17399;DHT22;8817;48.170;8.592;2022-09-24T05:37:13;18.00;46.90
17399;DHT22;8817;48.170;8.592;2022-09-24T05:39:42;18.00;46.90
17399;DHT22;8817;48.170;8.592;2022-09-24T05:42:09;18.00;47.00
17399;DHT22;8817;48.170;8.592;2022-09-24T05:44:38;18.00;47.00
17399;DHT22;8817;48.170;8.592;2022-09-24T05:47:05;18.00;47.10
17399;DHT22;8817;48.170;8.592;2022-09-24T05:49:32;18.00;47.10
17399;DHT22;8817;48.170;8.592;2022-09-24T05:51:59;18.00;47.10
17399;DHT22;8817;48.170;8.592;2022-09-24T05:54:27;18.00;47.10
17399;DHT22;8817;48.170;8.592;2022-09-24T05:56:56;18.00;47.20
17399;DHT22;8817;48.170;8.592;2022-09-24T05:59:23;18.00;47.20
17399;DHT22;8817;48.170;8.592;2022-09-24T06:01:49;18.10;47.30
17399;DHT22;8817;48.170;8.592;2022-09-24T06:04:17;18.10;47.30
17399;DHT22;8817;48.170;8.592;2022-09-24T06:06:44;18.10;46.60
17399;DHT22;8817;48.170;8.592;2022-09-24T06:09:11;18.10;47.30
17399;DHT22;8817;48.170;8.592;2022-09-24T06:11:38;18.10;47.30
17399;DHT22;8817;48.170;8.592;2022-09-24T06:14:06;18.10;47.40
17399;DHT22;8817;48.170;8.592;2022-09-24T06:16:34;18.10;47.40
17399;DHT22;8817;48.170;8.592;2022-09-24T06:19:01;18.10;47.40
17399;DHT22;8817;48.170;8.592;2022-09-24T06:21:28;18.10;47.40
17399;DHT22;8817;48.170;8.592;2022-09-24T06:23:55;18.10;47.50
17399;DHT22;8817;48.170;8.592;2022-09-24T06:26:22;18.10;47.50
17399;DHT22;8817;48.170;8.592;2022-09-24T06:28:50;18.10;47.50
17399;DHT22;8817;48.170;8.592;2022-09-24T06:31:19;18.10;47.50
17399;DHT22;8817;48.170;8.592;2022-09-24T06:33:46;18.10;47.60
17399;DHT22;8817;48.170;8.592;2022-09-24T06:36:13;18.10;46.90
17399;DHT22;8817;48.170;8.592;2022-09-24T06:38:40;18.10;47.60
17399;DHT22;8817;48.170;8.592;2022-09-24T06:41:07;18.10;47.60
17399;DHT22;8817;48.170;8.592;2022-09-24T06:43:34;18.10;47.70
17399;DHT22;8817;48.170;8.592;2022-09-24T06:46:02;18.10;47.70
17399;DHT22;8817;48.170;8.592;2022-09-24T06:48:30;18.10;47.80
17399;DHT22;8817;48.170;8.592;2022-09-24T06:50:58;18.10;47.80
17399;DHT22;8817;48.170;8.592;2022-09-24T06:53:25;18.10;47.80
17399;DHT22;8817;48.170;8.592;2022-09-24T06:55:55;18.10;47.80
17399;DHT22;8817;48.170;8.592;2022-09-24T06:58:22;18.20;47.90
17399;DHT22;8817;48.170;8.592;2022-09-24T07:00:51;18.20;47.90
17399;DHT22;8817;48.170;8.592;2022-09-24T07:03:18;18.20;47.90
17399;DHT22;8817;48.170;8.592;2022-09-24T07:05:47;18.20;47.90
17399;DHT22;8817;48.170;8.592;2022-09-24T07:08:14;18.20;48.00
17399;DHT22;8817;48.170;8.592;2022-09-24T07:10:42;18.20;47.90
17399;DHT22;8817;48.170;8.592;2022-09-24T07:13:10;18.20;48.00
17399;DHT22;8817;48.170;8.592;2022-09-24T07:15:37;18.10;48.00
17399;DHT22;8817;48.170;8.592;2022-09-24T07:18:04;18.10;48.00
17399;DHT22;8817;48.170;8.592;2022-09-24T07:20:32;18.20;48.10
17399;DHT22;8817;48.170;8.592;2022-09-24T07:23:00;18.10;48.20
17399;DHT22;8817;48.170;8.592;2022-09-24T07:25:27;18.10;48.20
17399;DHT22;8817;48.170;8.592;2022-09-24T07:27:54;18.20;48.20
17399;DHT22;8817;48.170;8.592;2022-09-24T07:30:21;18.20;48.20
17399;DHT22;8817;48.170;8.592;2022-09-24T07:32:53;18.20;48.30
17399;DHT22;8817;48.170;8.592;2022-09-24T07:35:20;18.20;49.00
17399;DHT22;8817;48.170;8.592;2022-09-24T07:37:47;18.20;48.40
17399;DHT22;8817;48.170;8.592;2022-09-24T07:40:16;18.20;48.50
17399;DHT22;8817;48.170;8.592;2022-09-24T07:42:46;18.20;48.50
17399;DHT22;8817;48.170;8.592;2022-09-24T07:45:14;18.20;48.50
17399;DHT22;8817;48.170;8.592;2022-09-24T07:47:41;18.30;48.60
17399;DHT22;8817;48.170;8.592;2022-09-24T07:50:09;18.30;48.70
17399;DHT22;8817;48.170;8.592;2022-09-24T07:52:36;18.30;48.70
17399;DHT22;8817;48.170;8.592;2022-09-24T07:55:04;18.30;48.80
17399;DHT22;8817;48.170;8.592;2022-09-24T07:57:32;18.40;48.80
17399;DHT22;8817;48.170;8.592;2022-09-24T07:59:59;18.40;48.80
17399;DHT22;8817;48.170;8.592;2022-09-24T08:02:29;18.40;48.90
17399;DHT22;8817;48.170;8.592;2022-09-24T08:04:56;18.50;48.90
17399;DHT22;8817;48.170;8.592;2022-09-24T08:07:23;18.50;49.50
17399;DHT22;8817;48.170;8.592;2022-09-24T08:09:50;18.50;49.00
17399;DHT22;8817;48.170;8.592;2022-09-24T08:12:17;18.50;49.10
17399;DHT22;8817;48.170;8.592;2022-09-24T08:14:45;18.60;49.10
17399;DHT22;8817;48.170;8.592;2022-09-24T08:17:12;18.60;49.10
17399;DHT22;8817;48.170;8.592;2022-09-24T08:19:39;18.60;49.10
17399;DHT22;8817;48.170;8.592;2022-09-24T08:22:07;18.60;49.10
17399;DHT22;8817;48.170;8.592;2022-09-24T08:24:34;18.60;49.10
17399;DHT22;8817;48.170;8.592;2022-09-24T08:27:01;18.60;49.10
17399;DHT22;8817;48.170;8.592;2022-09-24T08:29:28;18.60;49.20
17399;DHT22;8817;48.170;8.592;2022-09-24T08:31:56;18.60;49.20
17399;DHT22;8817;48.170;8.592;2022-09-24T08:34:23;18.60;49.30
17399;DHT22;8817;48.170;8.592;2022-09-24T08:36:50;18.60;49.30
17399;DHT22;8817;48.170;8.592;2022-09-24T08:39:17;18.70;49.40
17399;DHT22;8817;48.170;8.592;2022-09-24T08:41:51;18.70;49.50
17399;DHT22;8817;48.170;8.592;2022-09-24T08:44:25;18.70;49.60
17399;DHT22;8817;48.170;8.592;2022-09-24T08:47:18;18.80;49.70
17399;DHT22;8817;48.170;8.592;2022-09-24T08:49:57;18.80;49.60
17399;DHT22;8817;48.170;8.592;2022-09-24T08:52:43;18.80;49.70
17399;DHT22;8817;48.170;8.592;2022-09-24T08:55:16;18.80;49.70
17399;DHT22;8817;48.170;8.592;2022-09-24T08:57:49;18.90;49.60
17399;DHT22;8817;48.170;8.592;2022-09-24T09:00:21;18.90;49.60
17399;DHT22;8817;48.170;8.592;2022-09-24T09:02:54;19.00;49.60
17399;DHT22;8817;48.170;8.592;2022-09-24T09:05:37;19.00;49.70
17399;DHT22;8817;48.170;8.592;2022-09-24T09:08:15;19.00;49.70
17399;DHT22;8817;48.170;8.592;2022-09-24T09:10:56;19.00;49.70
17399;DHT22;8817;48.170;8.592;2022-09-24T09:13:29;19.00;49.60
17399;DHT22;8817;48.170;8.592;2022-09-24T09:16:00;19.10;49.70
17399;DHT22;8817;48.170;8.592;2022-09-24T09:18:35;19.10;49.70
17399;DHT22;8817;48.170;8.592;2022-09-24T09:21:11;19.10;49.80
17399;DHT22;8817;48.170;8.592;2022-09-24T09:23:45;19.10;49.80
17399;DHT22;8817;48.170;8.592;2022-09-24T09:26:13;19.10;49.80
17399;DHT22;8817;48.170;8.592;2022-09-24T09:28:41;19.10;50.30
17399;DHT22;8817;48.170;8.592;2022-09-24T09:31:20;19.10;49.90
17399;DHT22;8817;48.170;8.592;2022-09-24T09:34:02;19.10;49.90
17399;DHT22;8817;48.170;8.592;2022-09-24T09:36:41;19.10;49.90
17399;DHT22;8817;48.170;8.592;2022-09-24T09:39:26;19.20;50.00
17399;DHT22;8817;48.170;8.592;2022-09-24T09:42:01;19.20;50.00
17399;DHT22;8817;48.170;8.592;2022-09-24T09:44:30;19.20;50.00
17399;DHT22;8817;48.170;8.592;2022-09-24T09:47:08;19.20;50.00
17399;DHT22;8817;48.170;8.592;2022-09-24T09:49:39;19.30;50.00
17399;DHT22;8817;48.170;8.592;2022-09-24T09:52:12;19.30;50.00
17399;DHT22;8817;48.170;8.592;2022-09-24T09:54:40;19.30;50.10
17399;DHT22;8817;48.170;8.592;2022-09-24T09:57:13;19.30;50.00
17399;DHT22;8817;48.170;8.592;2022-09-24T09:59:45;19.30;50.10
17399;DHT22;8817;48.170;8.592;2022-09-24T10:02:20;19.30;50.00
17399;DHT22;8817;48.170;8.592;2022-09-24T10:04:52;19.30;50.00
17399;DHT22;8817;48.170;8.592;2022-09-24T10:07:21;19.30;50.00
17399;DHT22;8817;48.170;8.592;2022-09-24T10:09:58;19.30;50.00
17399;DHT22;8817;48.170;8.592;2022-09-24T10:12:27;19.30;50.20
17399;DHT22;8817;48.170;8.592;2022-09-24T10:15:03;19.30;50.20
17399;DHT22;8817;48.170;8.592;2022-09-24T10:17:34;19.30;50.30
17399;DHT22;8817;48.170;8.592;2022-09-24T10:20:07;19.30;50.30
17399;DHT22;8817;48.170;8.592;2022-09-24T10:22:36;19.30;50.30
17399;DHT22;8817;48.170;8.592;2022-09-24T10:25:04;19.40;50.40
17399;DHT22;8817;48.170;8.592;2022-09-24T10:27:33;19.40;50.40
17399;DHT22;8817;48.170;8.592;2022-09-24T10:30:03;19.40;50.50
17399;DHT22;8817;48.170;8.592;2022-09-24T10:32:56;19.40;50.50
17399;DHT22;8817;48.170;8.592;2022-09-24T10:35:31;19.40;50.60
17399;DHT22;8817;48.170;8.592;2022-09-24T10:38:01;19.50;50.70
17399;DHT22;8817;48.170;8.592;2022-09-24T10:40:30;19.50;50.70
17399;DHT22;8817;48.170;8.592;2022-09-24T10:42:58;19.50;50.70
17399;DHT22;8817;48.170;8.592;2022-09-24T10:45:44;19.60;50.70
17399;DHT22;8817;48.170;8.592;2022-09-24T10:48:18;19.50;50.70
17399;DHT22;8817;48.170;8.592;2022-09-24T10:50:56;19.60;50.70
17399;DHT22;8817;48.170;8.592;2022-09-24T10:53:35;19.60;50.70
17399;DHT22;8817;48.170;8.592;2022-09-24T10:56:14;19.70;50.80
17399;DHT22;8817;48.170;8.592;2022-09-24T10:59:17;19.70;50.90
17399;DHT22;8817;48.170;8.592;2022-09-24T11:01:53;19.80;51.60
17399;DHT22;8817;48.170;8.592;2022-09-24T11:04:41;19.80;51.00
17399;DHT22;8817;48.170;8.592;2022-09-24T11:07:38;19.90;51.10
17399;DHT22;8817;48.170;8.592;2022-09-24T11:10:20;19.90;51.60
17399;DHT22;8817;48.170;8.592;2022-09-24T11:12:56;20.00;51.10
17399;DHT22;8817;48.170;8.592;2022-09-24T11:15:39;20.10;51.80
17399;DHT22;8817;48.170;8.592;2022-09-24T11:18:26;20.10;51.20
17399;DHT22;8817;48.170;8.592;2022-09-24T11:21:02;20.20;51.20
17399;DHT22;8817;48.170;8.592;2022-09-24T11:23:45;20.30;51.20
17399;DHT22;8817;48.170;8.592;2022-09-24T11:26:24;20.30;51.10
17399;DHT22;8817;48.170;8.592;2022-09-24T11:29:14;20.40;51.10
17399;DHT22;8817;48.170;8.592;2022-09-24T11:31:51;20.40;51.00
17399;DHT22;8817;48.170;8.592;2022-09-24T11:34:33;20.40;50.90
17399;DHT22;8817;48.170;8.592;2022-09-24T11:37:20;20.40;51.00
17399;DHT22;8817;48.170;8.592;2022-09-24T11:40:06;20.40;51.00
17399;DHT22;8817;48.170;8.592;2022-09-24T11:42:44;20.50;51.00
17399;DHT22;8817;48.170;8.592;2022-09-24T11:45:27;20.50;51.00
17399;DHT22;8817;48.170;8.592;2022-09-24T11:48:20;20.50;51.00
17399;DHT22;8817;48.170;8.592;2022-09-24T11:50:59;20.50;51.00
17399;DHT22;8817;48.170;8.592;2022-09-24T11:53:33;20.60;50.90
17399;DHT22;8817;48.170;8.592;2022-09-24T11:56:08;20.60;50.90
17399;DHT22;8817;48.170;8.592;2022-09-24T11:58:41;20.50;50.80
17399;DHT22;8817;48.170;8.592;2022-09-24T12:01:13;20.50;50.80
17399;DHT22;8817;48.170;8.592;2022-09-24T12:03:45;20.50;50.80
17399;DHT22;8817;48.170;8.592;2022-09-24T12:06:17;20.50;50.70
17399;DHT22;8817;48.170;8.592;2022-09-24T12:08:50;20.50;50.80
17399;DHT22;8817;48.170;8.592;2022-09-24T12:11:24;20.40;50.80
17399;DHT22;8817;48.170;8.592;2022-09-24T12:13:59;20.40;50.80
17399;DHT22;8817;48.170;8.592;2022-09-24T12:16:32;20.30;50.70
17399;DHT22;8817;48.170;8.592;2022-09-24T12:19:07;20.30;50.80
17399;DHT22;8817;48.170;8.592;2022-09-24T12:21:38;20.30;50.90
17399;DHT22;8817;48.170;8.592;2022-09-24T12:24:11;20.20;50.90
17399;DHT22;8817;48.170;8.592;2022-09-24T12:26:44;20.20;51.00
17399;DHT22;8817;48.170;8.592;2022-09-24T12:29:34;20.20;51.10
17399;DHT22;8817;48.170;8.592;2022-09-24T14:59:30;19.00;54.20
17399;DHT22;8817;48.170;8.592;2022-09-24T15:02:18;19.20;54.00
17399;DHT22;8817;48.170;8.592;2022-09-24T15:04:48;19.40;53.70
17399;DHT22;8817;48.170;8.592;2022-09-24T15:07:18;19.50;53.40
17399;DHT22;8817;48.170;8.592;2022-09-24T15:09:48;19.70;53.40
17399;DHT22;8817;48.170;8.592;2022-09-24T15:12:19;19.80;53.20
17399;DHT22;8817;48.170;8.592;2022-09-24T15:14:55;19.90;53.10
17399;DHT22;8817;48.170;8.592;2022-09-24T15:17:30;20.00;53.00
17399;DHT22;8817;48.170;8.592;2022-09-24T15:19:57;20.10;52.90
17399;DHT22;8817;48.170;8.592;2022-09-24T15:22:24;20.20;52.70
17399;DHT22;8817;48.170;8.592;2022-09-24T15:24:52;20.20;52.60
17399;DHT22;8817;48.170;8.592;2022-09-24T15:27:21;20.30;52.60
17399;DHT22;8817;48.170;8.592;2022-09-24T15:29:48;20.30;52.60
17399;DHT22;8817;48.170;8.592;2022-09-24T15:32:18;20.30;52.50
17399;DHT22;8817;48.170;8.592;2022-09-24T15:34:46;20.40;52.50
17399;DHT22;8817;48.170;8.592;2022-09-24T15:37:17;20.40;52.40
17399;DHT22;8817;48.170;8.592;2022-09-24T15:39:44;20.50;52.30
17399;DHT22;8817;48.170;8.592;2022-09-24T15:42:14;20.50;52.30
17399;DHT22;8817;48.170;8.592;2022-09-24T15:44:42;20.50;52.20
17399;DHT22;8817;48.170;8.592;2022-09-24T15:47:10;20.50;52.10
17399;DHT22;8817;48.170;8.592;2022-09-24T15:49:39;20.50;52.10
17399;DHT22;8817;48.170;8.592;2022-09-24T15:52:11;20.50;52.10
17399;DHT22;8817;48.170;8.592;2022-09-24T15:54:39;20.50;52.00
17399;DHT22;8817;48.170;8.592;2022-09-24T15:57:10;20.50;52.00
17399;DHT22;8817;48.170;8.592;2022-09-24T15:59:38;20.50;52.00
17399;DHT22;8817;48.170;8.592;2022-09-24T16:02:13;20.50;52.00
17399;DHT22;8817;48.170;8.592;2022-09-24T16:04:43;20.50;52.00
17399;DHT22;8817;48.170;8.592;2022-09-24T16:07:10;20.50;51.90
17399;DHT22;8817;48.170;8.592;2022-09-24T16:09:37;20.50;51.90
17399;DHT22;8817;48.170;8.592;2022-09-24T16:12:04;20.40;51.80
17399;DHT22;8817;48.170;8.592;2022-09-24T16:14:31;20.40;51.80
17399;DHT22;8817;48.170;8.592;2022-09-24T16:16:58;20.40;51.90
17399;DHT22;8817;48.170;8.592;2022-09-24T16:19:25;20.40;51.90
17399;DHT22;8817;48.170;8.592;2022-09-24T16:21:55;20.40;51.90
17399;DHT22;8817;48.170;8.592;2022-09-24T16:24:24;20.30;51.90
17399;DHT22;8817;48.170;8.592;2022-09-24T16:26:51;20.30;52.40
17399;DHT22;8817;48.170;8.592;2022-09-24T16:29:18;20.30;51.80
17399;DHT22;8817;48.170;8.592;2022-09-24T16:31:45;20.30;51.70
17399;DHT22;8817;48.170;8.592;2022-09-24T16:34:14;20.20;51.70
17399;DHT22;8817;48.170;8.592;2022-09-24T16:36:41;20.20;51.80
17399;DHT22;8817;48.170;8.592;2022-09-24T16:39:09;20.10;51.80
17399;DHT22;8817;48.170;8.592;2022-09-24T16:41:36;20.10;51.80
17399;DHT22;8817;48.170;8.592;2022-09-24T16:44:03;20.00;51.70
17399;DHT22;8817;48.170;8.592;2022-09-24T16:46:31;20.00;51.80
17399;DHT22;8817;48.170;8.592;2022-09-24T16:48:58;20.00;51.80
17399;DHT22;8817;48.170;8.592;2022-09-24T16:51:25;19.90;51.80
17399;DHT22;8817;48.170;8.592;2022-09-24T16:53:53;19.90;51.80
17399;DHT22;8817;48.170;8.592;2022-09-24T16:56:22;19.90;51.80
17399;DHT22;8817;48.170;8.592;2022-09-24T16:58:49;19.80;51.70
17399;DHT22;8817;48.170;8.592;2022-09-24T17:01:18;19.80;51.70
17399;DHT22;8817;48.170;8.592;2022-09-24T17:03:49;19.70;51.70
17399;DHT22;8817;48.170;8.592;2022-09-24T17:06:17;19.70;51.80
17399;DHT22;8817;48.170;8.592;2022-09-24T17:08:45;19.70;51.90
17399;DHT22;8817;48.170;8.592;2022-09-24T17:11:30;19.70;52.40
17399;DHT22;8817;48.170;8.592;2022-09-24T17:13:58;19.70;51.90
17399;DHT22;8817;48.170;8.592;2022-09-24T17:16:25;19.60;51.90
17399;DHT22;8817;48.170;8.592;2022-09-24T17:18:53;19.60;51.90
17399;DHT22;8817;48.170;8.592;2022-09-24T17:21:20;19.60;51.90
17399;DHT22;8817;48.170;8.592;2022-09-24T17:23:48;19.60;51.90
17399;DHT22;8817;48.170;8.592;2022-09-24T17:26:17;19.50;51.80
17399;DHT22;8817;48.170;8.592;2022-09-24T17:28:47;19.50;51.80
17399;DHT22;8817;48.170;8.592;2022-09-24T17:31:17;19.40;51.70
17399;DHT22;8817;48.170;8.592;2022-09-24T17:33:46;19.50;51.80
17399;DHT22;8817;48.170;8.592;2022-09-24T17:36:13;19.40;51.80
17399;DHT22;8817;48.170;8.592;2022-09-24T17:38:41;19.40;51.80
17399;DHT22;8817;48.170;8.592;2022-09-24T17:41:09;19.30;51.90
17399;DHT22;8817;48.170;8.592;2022-09-24T17:43:37;19.30;51.90
17399;DHT22;8817;48.170;8.592;2022-09-24T17:46:08;19.30;51.90
17399;DHT22;8817;48.170;8.592;2022-09-24T17:48:38;19.20;51.90
17399;DHT22;8817;48.170;8.592;2022-09-24T17:51:09;19.20;52.50
17399;DHT22;8817;48.170;8.592;2022-09-24T17:53:37;19.20;52.00
17399;DHT22;8817;48.170;8.592;2022-09-24T17:56:06;19.20;52.00
17399;DHT22;8817;48.170;8.592;2022-09-24T17:58:35;19.20;52.00
17399;DHT22;8817;48.170;8.592;2022-09-24T18:01:03;19.20;52.00
17399;DHT22;8817;48.170;8.592;2022-09-24T18:03:32;19.10;51.90
17399;DHT22;8817;48.170;8.592;2022-09-24T18:06:00;19.10;51.90
17399;DHT22;8817;48.170;8.592;2022-09-24T18:08:27;19.10;52.00
17399;DHT22;8817;48.170;8.592;2022-09-24T18:11:06;19.10;52.00
17399;DHT22;8817;48.170;8.592;2022-09-24T18:13:33;19.10;52.00
17399;DHT22;8817;48.170;8.592;2022-09-24T18:16:02;19.10;52.60
17399;DHT22;8817;48.170;8.592;2022-09-24T18:18:29;19.00;52.10
17399;DHT22;8817;48.170;8.592;2022-09-24T18:20:59;19.00;52.10
17399;DHT22;8817;48.170;8.592;2022-09-24T18:23:26;19.00;52.10
17399;DHT22;8817;48.170;8.592;2022-09-24T18:25:53;19.00;52.10
17399;DHT22;8817;48.170;8.592;2022-09-24T18:28:21;19.00;52.10
17399;DHT22;8817;48.170;8.592;2022-09-24T18:30:48;19.00;52.10
17399;DHT22;8817;48.170;8.592;2022-09-24T18:33:15;19.00;52.20